Time;durP1;ratioP1;P1;durP2;ratioP2;P2;SDS_P1;SDS_P2;PMS_P1;PMS_P2;Temp;Humidity;BMP_temperature;BMP_pressure;BME280_temperature;BME280_humidity;BME280_pressure;Samples;Min_cycle;Max_cycle;Signal;HPM_P1;HPM_P2
2022/04/19 00:00:26;;;;;;;2.50;2.30;;;;;;;;;;5077365;28;20579;-58
2022/04/19 00:02:53;;;;;;;2.40;2.20;;;;;;;;;;5077765;28;20212;-56
2022/04/19 00:05:22;;;;;;;2.60;2.40;;;;;;;;;;5077546;28;20237;-56
2022/04/19 00:07:50;;;;;;;2.50;2.30;;;;;;;;;;5077425;28;20445;-56
2022/04/19 00:10:17;;;;;;;2.40;2.20;;;;;;;;;;5077518;28;20515;-56
2022/04/19 00:12:45;;;;;;;2.30;2.10;;;;;;;;;;5076822;28;20208;-59
2022/04/19 00:15:13;;;;;;;2.40;2.20;;;;;;;;;;5076729;28;20535;-56
2022/04/19 00:17:40;;;;;;;2.38;2.17;;;;;;;;;;5077794;28;20204;-57
2022/04/19 00:20:08;;;;;;;2.20;2.00;;;;;;;;;;5077581;28;20204;-56
2022/04/19 00:22:38;;;;;;;2.15;2.00;;;;;;;;;;5077324;28;20204;-56
2022/04/19 00:25:07;;;;;;;2.20;2.00;;;;;;;;;;5077209;28;20212;-56
2022/04/19 00:27:35;;;;;;;2.20;2.00;;;;;;;;;;5078651;28;20264;-56
2022/04/19 00:30:02;;;;;;;2.50;2.30;;;;;;;;;;5097373;28;20256;-56
2022/04/19 00:32:30;;;;;;;2.25;1.98;;;;;;;;;;5088571;28;20215;-56
2022/04/19 00:34:59;;;;;;;2.22;2.03;;;;;;;;;;5091395;28;20200;-56
2022/04/19 00:37:26;;;;;;;2.10;1.90;;;;;;;;;;5081766;28;20201;-56
2022/04/19 00:39:58;;;;;;;2.45;2.08;;;;;;;;;;5097592;28;20204;-56
2022/04/19 00:42:26;;;;;;;2.10;1.90;;;;;;;;;;5082282;28;20524;-56
2022/04/19 00:44:53;;;;;;;2.15;1.95;;;;;;;;;;5077242;28;20212;-56
2022/04/19 00:47:20;;;;;;;1.88;1.67;;;;;;;;;;5087137;28;20258;-56
2022/04/19 00:49:48;;;;;;;2.00;1.80;;;;;;;;;;5083703;28;20226;-56
2022/04/19 00:52:15;;;;;;;2.00;1.80;;;;;;;;;;5095888;28;20240;-56
2022/04/19 00:54:43;;;;;;;2.13;1.65;;;;;;;;;;5096480;28;20214;-57
2022/04/19 00:57:12;;;;;;;1.90;1.80;;;;;;;;;;5096758;28;20192;-56
2022/04/19 00:59:39;;;;;;;1.85;1.70;;;;;;;;;;5094959;28;20204;-57
2022/04/19 01:02:07;;;;;;;1.92;1.75;;;;;;;;;;5096860;28;20212;-56
2022/04/19 01:04:34;;;;;;;1.60;1.50;;;;;;;;;;5097120;28;20211;-56
2022/04/19 01:07:02;;;;;;;1.73;1.63;;;;;;;;;;5088827;28;20235;-56
2022/04/19 01:09:29;;;;;;;1.60;1.50;;;;;;;;;;5093320;28;20207;-56
2022/04/19 01:14:43;;;;;;;1.80;1.70;;;;;;;;;;5077317;28;20196;-56
2022/04/19 01:17:10;;;;;;;1.60;1.50;;;;;;;;;;5089134;28;20196;-56
2022/04/19 01:19:38;;;;;;;1.70;1.60;;;;;;;;;;5078198;28;20204;-56
2022/04/19 01:22:12;;;;;;;1.60;1.50;;;;;;;;;;5087086;28;20200;-56
2022/04/19 01:24:40;;;;;;;1.60;1.50;;;;;;;;;;5099359;28;20229;-56
2022/04/19 01:27:09;;;;;;;2.05;1.90;;;;;;;;;;5084648;28;20274;-56
2022/04/19 01:29:37;;;;;;;1.80;1.70;;;;;;;;;;5097162;28;20204;-56
2022/04/19 01:32:05;;;;;;;1.70;1.50;;;;;;;;;;5100455;28;20204;-56
2022/04/19 01:34:32;;;;;;;1.60;1.50;;;;;;;;;;5100753;28;20210;-56
2022/04/19 01:37:00;;;;;;;1.67;1.58;;;;;;;;;;5091890;28;20721;-56
2022/04/19 01:42:15;;;;;;;1.60;1.50;;;;;;;;;;5093145;28;20474;-57
2022/04/19 01:44:43;;;;;;;1.58;1.40;;;;;;;;;;5083172;28;20608;-56
2022/04/19 01:47:10;;;;;;;2.00;1.67;;;;;;;;;;5092856;28;20212;-56
2022/04/19 01:49:38;;;;;;;1.63;1.52;;;;;;;;;;5096601;28;20207;-56
2022/04/19 01:52:08;;;;;;;1.40;1.30;;;;;;;;;;5081850;28;20236;-56
2022/04/19 01:54:36;;;;;;;1.90;1.70;;;;;;;;;;5079606;28;20226;-56
2022/04/19 01:57:04;;;;;;;1.33;1.23;;;;;;;;;;5084929;28;20214;-56
2022/04/19 01:59:32;;;;;;;1.40;1.30;;;;;;;;;;5086903;28;20647;-56
2022/04/19 02:01:59;;;;;;;1.30;1.20;;;;;;;;;;5079927;28;20204;-57
2022/04/19 02:04:27;;;;;;;1.60;1.50;;;;;;;;;;5079678;28;20196;-56
2022/04/19 02:06:56;;;;;;;1.50;1.40;;;;;;;;;;5079263;28;20231;-56
2022/04/19 02:09:24;;;;;;;1.40;1.30;;;;;;;;;;5079734;28;20538;-56
2022/04/19 02:11:53;;;;;;;1.35;1.20;;;;;;;;;;5079524;28;20219;-56
2022/04/19 02:14:23;;;;;;;1.50;1.40;;;;;;;;;;5079385;28;20491;-56
2022/04/19 02:16:53;;;;;;;1.60;1.50;;;;;;;;;;5080098;28;20200;-56
2022/04/19 02:19:20;;;;;;;1.55;1.45;;;;;;;;;;5079047;28;20211;-56
2022/04/19 02:21:48;;;;;;;1.40;1.30;;;;;;;;;;5079265;28;20215;-56
2022/04/19 02:24:15;;;;;;;1.50;1.40;;;;;;;;;;5079355;28;20236;-56
2022/04/19 02:26:43;;;;;;;1.50;1.40;;;;;;;;;;5079358;28;20235;-56
2022/04/19 02:29:15;;;;;;;1.60;1.50;;;;;;;;;;5089135;28;20223;-56
2022/04/19 02:31:42;;;;;;;1.40;1.30;;;;;;;;;;5090618;28;20287;-56
2022/04/19 02:34:09;;;;;;;1.50;1.40;;;;;;;;;;5078892;28;20204;-56
2022/04/19 02:36:39;;;;;;;1.58;1.48;;;;;;;;;;5082460;28;20196;-56
2022/04/19 02:39:06;;;;;;;1.40;1.30;;;;;;;;;;5088181;28;20197;-57
2022/04/19 02:41:33;;;;;;;1.50;1.40;;;;;;;;;;5092318;28;20237;-56
2022/04/19 02:44:01;;;;;;;1.30;1.20;;;;;;;;;;5098635;28;20204;-56
2022/04/19 02:46:30;;;;;;;1.35;1.20;;;;;;;;;;5092154;28;20292;-57
2022/04/19 02:48:57;;;;;;;1.52;1.42;;;;;;;;;;5089074;28;20531;-56
2022/04/19 02:51:25;;;;;;;1.30;1.20;;;;;;;;;;5098233;28;20239;-57
2022/04/19 02:53:53;;;;;;;1.40;1.30;;;;;;;;;;5090499;28;20620;-56
2022/04/19 02:56:20;;;;;;;1.40;1.30;;;;;;;;;;5089953;28;20513;-56
2022/04/19 02:58:47;;;;;;;1.40;1.30;;;;;;;;;;5081702;28;20204;-56
2022/04/19 03:01:15;;;;;;;1.35;1.25;;;;;;;;;;5078366;28;20211;-56
2022/04/19 03:03:44;;;;;;;1.40;1.30;;;;;;;;;;5078251;28;20205;-56
2022/04/19 03:06:11;;;;;;;1.55;1.45;;;;;;;;;;5094303;28;20231;-56
2022/04/19 03:08:41;;;;;;;1.30;1.20;;;;;;;;;;5091038;28;20590;-57
2022/04/19 03:11:12;;;;;;;1.38;1.20;;;;;;;;;;5078707;28;20197;-56
2022/04/19 03:13:39;;;;;;;1.27;1.17;;;;;;;;;;5078732;28;20215;-56
2022/04/19 03:16:10;;;;;;;1.20;1.20;;;;;;;;;;5079989;28;20561;-56
2022/04/19 03:18:38;;;;;;;1.40;1.30;;;;;;;;;;5082333;28;20574;-56
2022/04/19 03:21:06;;;;;;;1.30;1.20;;;;;;;;;;5078605;28;20197;-56
2022/04/19 03:29:03;;;;;;;1.20;1.10;;;;;;;;;;5087718;28;20195;-57
2022/04/19 03:31:31;;;;;;;1.20;1.10;;;;;;;;;;5078141;28;20260;-56
2022/04/19 03:33:59;;;;;;;1.20;1.10;;;;;;;;;;5078327;28;20499;-56
2022/04/19 03:36:28;;;;;;;1.08;1.08;;;;;;;;;;5085302;28;20191;-56
2022/04/19 03:38:55;;;;;;;1.20;1.10;;;;;;;;;;5088585;28;20594;-56
2022/04/19 03:41:23;;;;;;;1.20;1.20;;;;;;;;;;5081397;28;20211;-56
2022/04/19 03:43:51;;;;;;;1.13;1.00;;;;;;;;;;5097681;28;20203;-56
2022/04/19 03:46:18;;;;;;;1.20;1.15;;;;;;;;;;5077111;28;20224;-56
2022/04/19 03:48:46;;;;;;;1.15;1.05;;;;;;;;;;5085049;28;20215;-56
2022/04/19 03:51:13;;;;;;;1.50;1.40;;;;;;;;;;5091396;28;20239;-56
2022/04/19 03:53:42;;;;;;;1.40;1.30;;;;;;;;;;5077558;28;20269;-56
2022/04/19 03:56:09;;;;;;;1.20;1.10;;;;;;;;;;5085498;28;20199;-56
2022/04/19 03:58:39;;;;;;;1.33;1.23;;;;;;;;;;5085469;28;20525;-56
2022/04/19 04:01:06;;;;;;;1.00;1.00;;;;;;;;;;5077490;28;20203;-56
2022/04/19 04:03:34;;;;;;;1.23;1.13;;;;;;;;;;5090506;28;20203;-56
2022/04/19 04:06:01;;;;;;;1.27;1.17;;;;;;;;;;5097693;28;20229;-56
2022/04/19 04:08:28;;;;;;;1.10;1.10;;;;;;;;;;5097765;28;20489;-56
2022/04/19 04:10:58;;;;;;;1.30;1.20;;;;;;;;;;5097620;28;20195;-57
2022/04/19 04:13:25;;;;;;;1.23;1.10;;;;;;;;;;5096845;28;20276;-55
2022/04/19 04:15:52;;;;;;;1.00;1.00;;;;;;;;;;5082979;28;20208;-56
2022/04/19 04:18:19;;;;;;;1.15;1.10;;;;;;;;;;5077283;28;20232;-55
2022/04/19 04:20:47;;;;;;;1.10;1.05;;;;;;;;;;5076390;28;20211;-56
2022/04/19 04:23:14;;;;;;;1.30;1.20;;;;;;;;;;5076933;28;20239;-58
2022/04/19 04:25:42;;;;;;;1.15;1.05;;;;;;;;;;5077250;28;20204;-56
2022/04/19 04:28:11;;;;;;;1.30;1.20;;;;;;;;;;5076579;28;20222;-57
2022/04/19 04:30:39;;;;;;;1.30;1.20;;;;;;;;;;5069013;28;20210;-57
2022/04/19 04:33:06;;;;;;;1.15;1.05;;;;;;;;;;5057251;28;20205;-57
2022/04/19 04:35:34;;;;;;;1.38;1.27;;;;;;;;;;5056510;28;20239;-56
2022/04/19 04:38:01;;;;;;;1.23;1.13;;;;;;;;;;5083766;28;20196;-57
2022/04/19 04:40:29;;;;;;;1.27;1.17;;;;;;;;;;5095357;28;20203;-55
2022/04/19 04:42:56;;;;;;;1.15;1.05;;;;;;;;;;5079354;28;20608;-57
2022/04/19 04:45:25;;;;;;;1.13;1.10;;;;;;;;;;5076639;28;20200;-56
2022/04/19 04:50:37;;;;;;;1.33;1.23;;;;;;;;;;5076315;28;20191;-56
2022/04/19 04:53:05;;;;;;;1.13;1.10;;;;;;;;;;5056569;28;20320;-58
2022/04/19 04:55:32;;;;;;;1.27;1.17;;;;;;;;;;5077613;28;20200;-55
2022/04/19 04:58:01;;;;;;;1.27;1.17;;;;;;;;;;5090399;28;20499;-57
2022/04/19 05:00:30;;;;;;;1.02;1.00;;;;;;;;;;5080518;28;20211;-57
2022/04/19 05:02:58;;;;;;;1.10;1.10;;;;;;;;;;5099844;28;20205;-56
2022/04/19 05:05:25;;;;;;;1.63;1.10;;;;;;;;;;5099791;28;20221;-56
2022/04/19 05:07:53;;;;;;;1.20;1.10;;;;;;;;;;5091843;28;20227;-56
2022/04/19 05:10:20;;;;;;;1.30;1.20;;;;;;;;;;5079976;28;20208;-56
2022/04/19 05:12:48;;;;;;;1.00;1.00;;;;;;;;;;5079283;28;20199;-56
2022/04/19 05:15:15;;;;;;;1.20;1.10;;;;;;;;;;5079637;28;20219;-59
2022/04/19 05:17:44;;;;;;;1.25;1.15;;;;;;;;;;5083416;28;20191;-56
2022/04/19 05:20:12;;;;;;;1.30;1.20;;;;;;;;;;5100895;28;20204;-56
2022/04/19 05:22:39;;;;;;;1.20;1.10;;;;;;;;;;5082002;28;20209;-56
2022/04/19 05:25:07;;;;;;;1.00;1.00;;;;;;;;;;5080046;28;20586;-56
2022/04/19 05:27:34;;;;;;;1.00;1.00;;;;;;;;;;5082336;28;20224;-56
2022/04/19 05:30:01;;;;;;;1.10;1.10;;;;;;;;;;5100076;28;20200;-56
2022/04/19 05:32:31;;;;;;;1.27;1.17;;;;;;;;;;5099308;28;20214;-56
2022/04/19 05:35:02;;;;;;;1.20;1.10;;;;;;;;;;5099958;28;20230;-56
2022/04/19 05:37:31;;;;;;;1.30;1.20;;;;;;;;;;5083977;28;20192;-55
2022/04/19 05:39:59;;;;;;;1.00;1.00;;;;;;;;;;5098557;28;20286;-56
2022/04/19 05:42:26;;;;;;;1.05;1.00;;;;;;;;;;5087220;28;20204;-56
2022/04/19 05:44:53;;;;;;;1.40;1.30;;;;;;;;;;5084610;28;20252;-56
2022/04/19 05:47:21;;;;;;;1.30;1.20;;;;;;;;;;5089964;28;20618;-55
2022/04/19 05:49:48;;;;;;;1.10;1.00;;;;;;;;;;5094535;28;20215;-58
2022/04/19 05:52:17;;;;;;;1.13;1.02;;;;;;;;;;5086396;28;20231;-55
2022/04/19 05:54:44;;;;;;;1.20;1.10;;;;;;;;;;5098598;28;20626;-55
2022/04/19 05:57:12;;;;;;;1.00;1.00;;;;;;;;;;5098137;28;20739;-59
2022/04/19 05:59:39;;;;;;;1.40;1.30;;;;;;;;;;5082604;28;20204;-55
2022/04/19 06:04:57;;;;;;;1.30;1.20;;;;;;;;;;5097124;28;20487;-56
2022/04/19 06:07:26;;;;;;;1.23;1.20;;;;;;;;;;5097598;28;20223;-55
2022/04/19 06:09:53;;;;;;;1.48;1.38;;;;;;;;;;5096239;28;20200;-57
2022/04/19 06:12:21;;;;;;;1.45;1.10;;;;;;;;;;5097425;28;20235;-55
2022/04/19 06:14:49;;;;;;;1.20;1.20;;;;;;;;;;5098022;28;20210;-55
2022/04/19 06:17:16;;;;;;;1.23;1.13;;;;;;;;;;5095726;28;20199;-55
2022/04/19 06:19:44;;;;;;;1.20;1.10;;;;;;;;;;5096630;28;20211;-55
2022/04/19 06:22:13;;;;;;;1.20;1.10;;;;;;;;;;5097106;28;20195;-56
2022/04/19 06:24:41;;;;;;;1.33;1.20;;;;;;;;;;5097735;28;20604;-56
2022/04/19 06:27:09;;;;;;;1.83;1.17;;;;;;;;;;5097053;28;20239;-56
2022/04/19 06:29:36;;;;;;;1.30;1.13;;;;;;;;;;5090097;28;20199;-56
2022/04/19 06:32:04;;;;;;;1.42;1.33;;;;;;;;;;5093856;28;20211;-56
2022/04/19 06:34:31;;;;;;;1.40;1.30;;;;;;;;;;5094472;28;20214;-56
2022/04/19 06:36:59;;;;;;;1.30;1.20;;;;;;;;;;5077111;28;20621;-56
2022/04/19 06:39:26;;;;;;;1.10;1.00;;;;;;;;;;5092300;28;20215;-56
2022/04/19 06:41:55;;;;;;;1.42;1.20;;;;;;;;;;5091068;28;20481;-56
2022/04/19 06:44:23;;;;;;;2.40;1.20;;;;;;;;;;5076298;28;20243;-56
2022/04/19 06:46:50;;;;;;;1.40;1.27;;;;;;;;;;5085269;28;20222;-56
2022/04/19 06:49:18;;;;;;;1.60;1.35;;;;;;;;;;5079770;28;20216;-56
2022/04/19 06:51:48;;;;;;;2.60;1.50;;;;;;;;;;5075472;28;20239;-57
2022/04/19 06:54:16;;;;;;;1.77;1.42;;;;;;;;;;5076354;28;20484;-56
2022/04/19 06:56:46;;;;;;;2.08;1.48;;;;;;;;;;5084558;28;20621;-56
2022/04/19 06:59:16;;;;;;;1.92;1.30;;;;;;;;;;5082527;28;20196;-56
2022/04/19 07:01:43;;;;;;;1.30;1.20;;;;;;;;;;5090805;28;20199;-57
2022/04/19 07:04:11;;;;;;;1.42;1.33;;;;;;;;;;5095260;28;20527;-56
2022/04/19 07:06:38;;;;;;;2.00;1.40;;;;;;;;;;5058992;28;20192;-56
2022/04/19 07:09:06;;;;;;;1.90;1.40;;;;;;;;;;5089245;28;20466;-56
2022/04/19 07:11:37;;;;;;;1.60;1.40;;;;;;;;;;5095046;28;20445;-56
2022/04/19 07:14:04;;;;;;;1.60;1.40;;;;;;;;;;5089940;28;20509;-57
2022/04/19 07:16:33;;;;;;;2.03;1.25;;;;;;;;;;5071363;28;20267;-56
2022/04/19 07:19:01;;;;;;;1.55;1.33;;;;;;;;;;5076573;28;20290;-56
2022/04/19 07:27:10;;;;;;;1.52;1.20;;;;;;;;;;4980883;28;20192;-56
2022/04/19 07:29:37;;;;;;;1.85;1.60;;;;;;;;;;5064877;28;20223;-57
2022/04/19 07:32:09;;;;;;;2.47;1.30;;;;;;;;;;5095662;28;20199;-57
2022/04/19 07:34:37;;;;;;;2.20;1.58;;;;;;;;;;5079999;28;20216;-57
2022/04/19 07:37:05;;;;;;;4.20;1.75;;;;;;;;;;5085530;28;20203;-57
2022/04/19 07:39:32;;;;;;;2.58;1.50;;;;;;;;;;5080048;28;20189;-57
2022/04/19 07:42:00;;;;;;;3.35;1.45;;;;;;;;;;5078793;28;20525;-57
2022/04/19 07:44:29;;;;;;;2.08;1.50;;;;;;;;;;5096249;28;20200;-57
2022/04/19 07:46:57;;;;;;;2.38;1.50;;;;;;;;;;5088714;28;20227;-56
2022/04/19 07:49:25;;;;;;;1.67;1.20;;;;;;;;;;5075764;28;20235;-56
2022/04/19 07:51:54;;;;;;;1.50;1.40;;;;;;;;;;5092825;28;20644;-57
2022/04/19 07:54:22;;;;;;;1.55;1.40;;;;;;;;;;5096384;28;20204;-58
2022/04/19 07:56:50;;;;;;;1.38;1.27;;;;;;;;;;5093493;28;20196;-57
2022/04/19 07:59:17;;;;;;;1.00;1.00;;;;;;;;;;5085211;28;20200;-57
2022/04/19 08:01:44;;;;;;;1.90;1.40;;;;;;;;;;5095821;28;20203;-58
2022/04/19 08:04:12;;;;;;;2.03;1.20;;;;;;;;;;5096150;28;20196;-57
2022/04/19 08:06:41;;;;;;;1.50;1.40;;;;;;;;;;5095478;28;20214;-57
2022/04/19 08:09:09;;;;;;;1.80;1.10;;;;;;;;;;5095518;28;20493;-57
2022/04/19 08:11:36;;;;;;;1.40;1.00;;;;;;;;;;5095657;28;20268;-57
2022/04/19 08:14:04;;;;;;;1.35;1.25;;;;;;;;;;5095386;28;20589;-57
2022/04/19 08:16:31;;;;;;;1.30;1.20;;;;;;;;;;5094361;28;20199;-57
2022/04/19 08:18:59;;;;;;;1.90;1.52;;;;;;;;;;5095844;28;20289;-57
2022/04/19 08:21:26;;;;;;;1.50;1.30;;;;;;;;;;5095507;28;20214;-57
2022/04/19 08:23:55;;;;;;;1.30;1.20;;;;;;;;;;5095355;28;20203;-57
2022/04/19 08:26:22;;;;;;;1.67;1.30;;;;;;;;;;5095830;28;20196;-57
2022/04/19 08:28:49;;;;;;;1.02;1.00;;;;;;;;;;5095208;28;20234;-57
2022/04/19 08:31:17;;;;;;;1.35;1.25;;;;;;;;;;5095427;28;20203;-57
2022/04/19 08:33:44;;;;;;;1.15;1.00;;;;;;;;;;5093370;28;20202;-57
2022/04/19 08:36:12;;;;;;;1.23;1.13;;;;;;;;;;5091387;28;20187;-57
2022/04/19 08:38:39;;;;;;;1.10;1.02;;;;;;;;;;5093282;28;20196;-57
2022/04/19 08:41:08;;;;;;;0.90;0.90;;;;;;;;;;5090117;28;20195;-57
2022/04/19 08:43:36;;;;;;;1.30;1.20;;;;;;;;;;5085528;28;20588;-57
2022/04/19 08:46:04;;;;;;;1.92;1.00;;;;;;;;;;5093819;28;20211;-58
2022/04/19 08:48:32;;;;;;;2.42;1.20;;;;;;;;;;5087041;28;20231;-58
2022/04/19 08:51:03;;;;;;;1.60;1.02;;;;;;;;;;5072977;28;20558;-58
2022/04/19 08:59:04;;;;;;;1.85;1.30;;;;;;;;;;5092944;28;20205;-57
2022/04/19 09:01:31;;;;;;;1.42;0.93;;;;;;;;;;5081455;28;20496;-58
2022/04/19 09:03:59;;;;;;;1.35;1.00;;;;;;;;;;5091876;28;20209;-57
2022/04/19 09:06:50;;;;;;;1.17;1.08;;;;;;;;;;5091181;28;20502;-57
2022/04/19 09:09:17;;;;;;;1.88;1.20;;;;;;;;;;5090263;28;20640;-58
2022/04/19 09:11:46;;;;;;;1.65;1.20;;;;;;;;;;5086500;28;20195;-58
2022/04/19 09:14:14;;;;;;;1.25;1.00;;;;;;;;;;5093645;28;20200;-57
2022/04/19 09:16:41;;;;;;;1.42;1.20;;;;;;;;;;5093912;28;20207;-58
2022/04/19 09:19:11;;;;;;;1.13;1.05;;;;;;;;;;5093059;28;20203;-57
2022/04/19 09:21:40;;;;;;;2.78;1.40;;;;;;;;;;5062587;28;20204;-57
2022/04/19 09:24:28;;;;;;;2.45;1.20;;;;;;;;;;5072097;28;20265;-57
2022/04/19 09:26:57;;;;;;;1.10;1.00;;;;;;;;;;5066370;28;20231;-58
2022/04/19 09:29:25;;;;;;;1.50;1.17;;;;;;;;;;5062806;28;20221;-57
2022/04/19 09:31:54;;;;;;;1.25;1.10;;;;;;;;;;5052907;28;20201;-56
2022/04/19 09:34:29;;;;;;;1.52;1.27;;;;;;;;;;5052107;28;20228;-57
2022/04/19 09:37:07;;;;;;;1.73;1.10;;;;;;;;;;5071788;28;20208;-57
2022/04/19 09:39:37;;;;;;;1.75;1.30;;;;;;;;;;5070690;28;20203;-57
2022/04/19 09:42:07;;;;;;;1.85;1.38;;;;;;;;;;5067853;28;20204;-57
2022/04/19 09:44:41;;;;;;;1.23;1.13;;;;;;;;;;5072430;28;20601;-57
2022/04/19 09:47:09;;;;;;;2.15;1.52;;;;;;;;;;5065217;28;20480;-57
2022/04/19 09:49:47;;;;;;;2.78;1.40;;;;;;;;;;5074383;28;20228;-57
2022/04/19 09:52:15;;;;;;;2.00;1.58;;;;;;;;;;5071207;28;20246;-57
2022/04/19 09:54:43;;;;;;;2.15;1.85;;;;;;;;;;5075785;28;20546;-57
2022/04/19 09:57:12;;;;;;;2.35;1.90;;;;;;;;;;5067160;28;20292;-57
2022/04/19 10:08:21;;;;;;;3.10;2.10;;;;;;;;;;5077871;28;20276;-57
2022/04/19 10:10:49;;;;;;;3.92;2.13;;;;;;;;;;5078016;28;20526;-57
2022/04/19 10:13:20;;;;;;;2.20;2.00;;;;;;;;;;5076683;28;20204;-57
2022/04/19 10:15:48;;;;;;;2.72;2.00;;;;;;;;;;5091065;28;20290;-57
2022/04/19 10:18:16;;;;;;;3.85;2.35;;;;;;;;;;5096291;28;20646;-57
2022/04/19 10:20:46;;;;;;;4.75;2.20;;;;;;;;;;5069242;28;20205;-57
2022/04/19 10:23:15;;;;;;;3.50;2.00;;;;;;;;;;5058114;28;20277;-57
2022/04/19 10:25:44;;;;;;;3.90;2.30;;;;;;;;;;5074142;28;20213;-57
2022/04/19 10:28:13;;;;;;;4.55;2.38;;;;;;;;;;5052941;28;20205;-58
2022/04/19 10:30:51;;;;;;;3.38;2.35;;;;;;;;;;5053607;28;20205;-57
2022/04/19 10:33:37;;;;;;;3.63;2.47;;;;;;;;;;5053126;28;20204;-57
2022/04/19 10:36:11;;;;;;;4.43;2.33;;;;;;;;;;5054606;28;20200;-57
2022/04/19 10:38:38;;;;;;;4.35;2.20;;;;;;;;;;5053951;28;20392;-57
2022/04/19 10:41:06;;;;;;;3.30;1.80;;;;;;;;;;5055200;28;20205;-57
2022/04/19 10:43:33;;;;;;;2.28;1.73;;;;;;;;;;5058024;28;20314;-57
2022/04/19 10:46:15;;;;;;;3.85;2.08;;;;;;;;;;5070285;28;20211;-57
2022/04/19 10:48:57;;;;;;;2.33;2.13;;;;;;;;;;5050575;28;20220;-58
2022/04/19 10:51:30;;;;;;;2.70;2.05;;;;;;;;;;5051788;28;20224;-57
2022/04/19 10:53:57;;;;;;;3.03;2.10;;;;;;;;;;5053415;28;20201;-57
2022/04/19 10:56:25;;;;;;;2.45;2.00;;;;;;;;;;5053481;28;20679;-57
2022/04/19 10:58:53;;;;;;;3.55;1.90;;;;;;;;;;5052102;28;20212;-57
2022/04/19 11:01:30;;;;;;;2.85;1.80;;;;;;;;;;5051837;28;20193;-57
2022/04/19 11:03:58;;;;;;;1.70;1.60;;;;;;;;;;5051072;28;20228;-57
2022/04/19 11:06:37;;;;;;;2.13;1.73;;;;;;;;;;5059204;28;20262;-57
2022/04/19 11:09:09;;;;;;;3.05;1.90;;;;;;;;;;5070022;28;20667;-58
2022/04/19 11:11:46;;;;;;;2.17;1.90;;;;;;;;;;5054412;28;20212;-57
2022/04/19 11:14:46;;;;;;;2.80;1.90;;;;;;;;;;5072281;28;20244;-57
2022/04/19 11:17:21;;;;;;;2.95;1.70;;;;;;;;;;5053420;28;20264;-57
2022/04/19 11:19:53;;;;;;;2.58;1.92;;;;;;;;;;5052304;28;20224;-58
2022/04/19 11:22:44;;;;;;;3.58;2.08;;;;;;;;;;5051923;28;20259;-57
2022/04/19 11:25:11;;;;;;;1.73;1.50;;;;;;;;;;5053595;28;20231;-57
2022/04/19 11:27:57;;;;;;;2.03;1.60;;;;;;;;;;5053150;28;20201;-57
2022/04/19 11:30:25;;;;;;;2.10;1.67;;;;;;;;;;5053217;28;20220;-58
2022/04/19 11:32:53;;;;;;;2.13;1.75;;;;;;;;;;5071924;28;20207;-58
2022/04/19 11:35:21;;;;;;;2.40;1.83;;;;;;;;;;5072716;28;20514;-57
2022/04/19 11:37:50;;;;;;;2.10;1.70;;;;;;;;;;5070430;28;20217;-57
2022/04/19 11:48:38;;;;;;;3.50;1.80;;;;;;;;;;5051905;28;20243;-57
2022/04/19 11:51:07;;;;;;;2.25;1.50;;;;;;;;;;5053391;28;20245;-57
2022/04/19 11:53:36;;;;;;;1.83;1.60;;;;;;;;;;5072795;28;20558;-57
2022/04/19 11:56:04;;;;;;;2.42;1.80;;;;;;;;;;5069807;28;20550;-57
2022/04/19 11:58:31;;;;;;;3.72;1.73;;;;;;;;;;5053294;28;20318;-57
2022/04/19 12:01:01;;;;;;;2.45;1.90;;;;;;;;;;5055815;28;20263;-57
2022/04/19 12:03:29;;;;;;;2.47;1.85;;;;;;;;;;5070217;28;20195;-57
2022/04/19 12:05:57;;;;;;;1.90;1.60;;;;;;;;;;5089755;28;20211;-58
2022/04/19 12:08:31;;;;;;;2.47;1.70;;;;;;;;;;5087981;28;20316;-57
2022/04/19 12:11:01;;;;;;;2.15;1.70;;;;;;;;;;5094013;28;20209;-57
2022/04/19 12:13:28;;;;;;;1.80;1.50;;;;;;;;;;5094011;28;20215;-58
2022/04/19 12:15:56;;;;;;;1.65;1.48;;;;;;;;;;5095054;28;20449;-57
2022/04/19 12:18:33;;;;;;;1.73;1.50;;;;;;;;;;5094207;28;20649;-57
2022/04/19 12:21:01;;;;;;;1.60;1.50;;;;;;;;;;5073235;28;20520;-57
2022/04/19 12:23:28;;;;;;;2.25;1.48;;;;;;;;;;5074070;28;20196;-57
2022/04/19 12:26:05;;;;;;;2.42;1.80;;;;;;;;;;5072433;28;20356;-57
2022/04/19 12:28:39;;;;;;;2.55;1.58;;;;;;;;;;5072672;28;20207;-57
2022/04/19 12:31:06;;;;;;;1.70;1.55;;;;;;;;;;5071788;28;20593;-57
2022/04/19 12:33:35;;;;;;;2.30;1.77;;;;;;;;;;5071999;28;20204;-58
2022/04/19 12:36:02;;;;;;;1.77;1.50;;;;;;;;;;5071600;28;20223;-57
2022/04/19 12:38:30;;;;;;;1.80;1.60;;;;;;;;;;5068315;28;20197;-57
2022/04/19 12:40:58;;;;;;;2.78;1.30;;;;;;;;;;5059775;28;20196;-57
2022/04/19 12:43:40;;;;;;;2.13;1.63;;;;;;;;;;5070779;28;20204;-57
2022/04/19 12:46:08;;;;;;;1.63;1.50;;;;;;;;;;5066103;28;20216;-58
2022/04/19 12:48:36;;;;;;;2.60;1.67;;;;;;;;;;5051257;28;20472;-57
2022/04/19 12:51:04;;;;;;;1.98;1.52;;;;;;;;;;5050991;28;20237;-57
2022/04/19 12:53:32;;;;;;;1.50;1.30;;;;;;;;;;5051400;28;20208;-57
2022/04/19 12:56:09;;;;;;;1.67;1.50;;;;;;;;;;5052276;28;20200;-58
2022/04/19 12:58:43;;;;;;;2.30;1.60;;;;;;;;;;5053299;28;20204;-56
2022/04/19 13:01:12;;;;;;;1.30;1.20;;;;;;;;;;5054790;28;20205;-56
2022/04/19 13:03:40;;;;;;;1.50;1.25;;;;;;;;;;5051262;28;20285;-56
2022/04/19 13:14:30;;;;;;;1.80;1.55;;;;;;;;;;5050993;28;20196;-57
2022/04/19 13:16:59;;;;;;;1.45;1.35;;;;;;;;;;5051010;28;20223;-57
2022/04/19 13:19:27;;;;;;;1.50;1.40;;;;;;;;;;5053496;28;20681;-57
2022/04/19 13:21:55;;;;;;;1.85;1.25;;;;;;;;;;5069022;28;20450;-57
2022/04/19 13:24:22;;;;;;;2.13;1.48;;;;;;;;;;5055816;28;20655;-56
2022/04/19 13:26:50;;;;;;;1.90;1.40;;;;;;;;;;5062248;28;20510;-57
2022/04/19 13:29:17;;;;;;;1.30;1.20;;;;;;;;;;5092291;28;20490;-57
2022/04/19 13:31:45;;;;;;;1.60;1.40;;;;;;;;;;5091831;28;20196;-57
2022/04/19 13:34:14;;;;;;;1.23;1.13;;;;;;;;;;5074463;28;20196;-57
2022/04/19 13:36:42;;;;;;;2.30;1.27;;;;;;;;;;5073973;28;20222;-56
2022/04/19 13:39:10;;;;;;;1.42;1.30;;;;;;;;;;5075004;28;20309;-57
2022/04/19 13:41:41;;;;;;;1.60;1.40;;;;;;;;;;5073730;28;20204;-65
2022/04/19 13:44:10;;;;;;;1.33;1.23;;;;;;;;;;5073526;28;20197;-57
2022/04/19 13:46:38;;;;;;;1.38;1.27;;;;;;;;;;5072268;28;20196;-57
2022/04/19 13:49:06;;;;;;;1.30;1.20;;;;;;;;;;5075045;28;20464;-56
2022/04/19 13:51:35;;;;;;;1.60;1.50;;;;;;;;;;5074306;28;20228;-57
2022/04/19 13:54:03;;;;;;;1.40;1.30;;;;;;;;;;5073501;28;20196;-57
2022/04/19 13:56:30;;;;;;;1.95;1.30;;;;;;;;;;5071019;28;20196;-57
2022/04/19 13:58:58;;;;;;;1.30;1.20;;;;;;;;;;5073435;28;20204;-57
2022/04/19 14:01:28;;;;;;;1.33;1.23;;;;;;;;;;5059475;28;20193;-57
2022/04/19 14:03:55;;;;;;;1.33;1.23;;;;;;;;;;5092902;28;20223;-57
2022/04/19 14:06:23;;;;;;;1.30;1.20;;;;;;;;;;5086646;28;20341;-56
2022/04/19 14:08:51;;;;;;;1.38;1.20;;;;;;;;;;5073435;28;20200;-56
2022/04/19 14:11:19;;;;;;;1.45;1.20;;;;;;;;;;5079251;28;20270;-56
2022/04/19 14:13:47;;;;;;;1.40;1.30;;;;;;;;;;5093383;28;20701;-57
2022/04/19 14:16:14;;;;;;;1.20;1.10;;;;;;;;;;5096048;28;20200;-57
2022/04/19 14:18:42;;;;;;;1.35;1.25;;;;;;;;;;5094998;28;20199;-57
2022/04/19 14:21:09;;;;;;;1.33;1.23;;;;;;;;;;5095847;28;20207;-57
2022/04/19 14:23:37;;;;;;;1.40;1.30;;;;;;;;;;5093336;28;20764;-57
2022/04/19 14:26:06;;;;;;;1.40;1.30;;;;;;;;;;5092235;28;20569;-56
2022/04/19 14:34:07;;;;;;;1.88;1.30;;;;;;;;;;5095424;28;20214;-58
2022/04/19 14:36:34;;;;;;;1.42;1.15;;;;;;;;;;5095829;28;20210;-57
2022/04/19 14:39:02;;;;;;;1.30;1.20;;;;;;;;;;5093509;28;20191;-56
2022/04/19 14:41:31;;;;;;;1.25;1.20;;;;;;;;;;5085905;28;20194;-57
2022/04/19 14:43:59;;;;;;;1.33;1.23;;;;;;;;;;5074434;28;20196;-56
2022/04/19 14:46:26;;;;;;;1.35;1.25;;;;;;;;;;5093157;28;20199;-57
2022/04/19 14:48:53;;;;;;;1.10;1.05;;;;;;;;;;5087042;28;20303;-57
2022/04/19 14:54:06;;;;;;;1.25;0.90;;;;;;;;;;5094153;28;20190;-56
2022/04/19 14:56:35;;;;;;;1.35;1.25;;;;;;;;;;5091067;28;20207;-57
2022/04/19 14:59:02;;;;;;;1.10;1.00;;;;;;;;;;5091677;28;20204;-57
2022/04/19 15:01:29;;;;;;;1.00;1.00;;;;;;;;;;5080616;28;20184;-58
2022/04/19 15:03:57;;;;;;;1.75;1.30;;;;;;;;;;5070860;28;20401;-57
2022/04/19 15:06:24;;;;;;;1.23;1.13;;;;;;;;;;5076478;28;20220;-57
2022/04/19 15:08:52;;;;;;;1.65;1.30;;;;;;;;;;5071596;28;20490;-57
2022/04/19 15:11:20;;;;;;;0.85;0.85;;;;;;;;;;5071891;28;20319;-57
2022/04/19 15:13:48;;;;;;;1.20;1.10;;;;;;;;;;5071217;28;20200;-57
2022/04/19 15:16:16;;;;;;;1.27;1.02;;;;;;;;;;5072378;28;20586;-58
2022/04/19 15:18:43;;;;;;;1.30;0.98;;;;;;;;;;5089668;28;20211;-57
2022/04/19 15:21:11;;;;;;;0.98;0.98;;;;;;;;;;5085647;28;20212;-56
2022/04/19 15:23:38;;;;;;;1.05;1.00;;;;;;;;;;5077367;28;20196;-57
2022/04/19 15:26:06;;;;;;;1.35;1.17;;;;;;;;;;5085702;28;20232;-57
2022/04/19 15:28:34;;;;;;;1.30;1.20;;;;;;;;;;5072039;28;20204;-57
2022/04/19 15:31:02;;;;;;;1.40;1.30;;;;;;;;;;5071322;28;20216;-57
2022/04/19 15:33:30;;;;;;;1.20;1.10;;;;;;;;;;5072679;28;20274;-57
2022/04/19 15:35:58;;;;;;;1.05;0.98;;;;;;;;;;5077314;28;20582;-57
2022/04/19 15:38:26;;;;;;;1.23;1.02;;;;;;;;;;5090194;28;20207;-57
2022/04/19 15:40:53;;;;;;;1.10;1.00;;;;;;;;;;5072910;28;20578;-57
2022/04/19 15:43:21;;;;;;;1.27;1.17;;;;;;;;;;5059266;28;20193;-57
2022/04/19 15:45:48;;;;;;;1.30;1.20;;;;;;;;;;5076217;28;20219;-57
2022/04/19 15:48:17;;;;;;;1.13;1.00;;;;;;;;;;5083344;28;20498;-58
2022/04/19 15:50:45;;;;;;;1.00;1.00;;;;;;;;;;5055649;28;20220;-57
2022/04/19 15:53:12;;;;;;;1.20;1.10;;;;;;;;;;5072369;28;20197;-57